Time;durP1;ratioP1;P1;durP2;ratioP2;P2;SDS_P1;SDS_P2;PMS_P1;PMS_P2;Temp;Humidity;BMP_temperature;BMP_pressure;BME280_temperature;BME280_humidity;BME280_pressure;Samples;Min_cycle;Max_cycle;Signal;HPM_P1;HPM_P2
2022/04/20 00:00:20;;;;;;;;;;;10.80;92.30;;;;;;5053322;28;20444;-47
2022/04/20 00:02:49;;;;;;;;;;;10.90;92.30;;;;;;5050495;28;19925;-48
2022/04/20 00:05:15;;;;;;;;;;;10.80;92.50;;;;;;5053689;28;19924;-48
2022/04/20 00:07:42;;;;;;;;;;;10.70;92.50;;;;;;5053298;28;19990;-48
2022/04/20 00:10:09;;;;;;;;;;;10.60;92.70;;;;;;5053496;28;19925;-49
2022/04/20 00:12:36;;;;;;;;;;;10.60;92.50;;;;;;5052198;28;19925;-49
2022/04/20 00:15:03;;;;;;;;;;;10.40;92.90;;;;;;5051021;28;19975;-47
2022/04/20 00:17:29;;;;;;;;;;;10.50;92.60;;;;;;5053003;28;19925;-49
2022/04/20 00:19:58;;;;;;;;;;;10.50;92.90;;;;;;5053276;28;19924;-47
2022/04/20 00:22:24;;;;;;;;;;;10.20;93.00;;;;;;5053051;28;19925;-48
2022/04/20 00:24:51;;;;;;;;;;;10.10;93.50;;;;;;5053349;28;19963;-48
2022/04/20 00:27:18;;;;;;;;;;;10.20;93.80;;;;;;5053250;28;19987;-48
2022/04/20 00:29:44;;;;;;;;;;;10.20;94.30;;;;;;5053035;28;19925;-48
2022/04/20 00:32:11;;;;;;;;;;;10.10;94.70;;;;;;5052170;28;20237;-49
2022/04/20 00:34:38;;;;;;;;;;;9.90;95.80;;;;;;5060517;28;19928;-48
2022/04/20 00:37:06;;;;;;;;;;;9.80;96.10;;;;;;5052992;28;19978;-48
2022/04/20 00:39:34;;;;;;;;;;;9.70;96.30;;;;;;5052825;28;19925;-48
2022/04/20 00:42:00;;;;;;;;;;;9.60;97.10;;;;;;5053026;28;19925;-48
2022/04/20 00:44:27;;;;;;;;;;;9.70;97.10;;;;;;5053086;28;19928;-49
2022/04/20 00:46:55;;;;;;;;;;;9.70;97.20;;;;;;5049334;28;19978;-48
2022/04/20 00:49:22;;;;;;;;;;;9.70;97.40;;;;;;5046122;28;19933;-49
2022/04/20 00:51:52;;;;;;;;;;;9.70;97.90;;;;;;5052497;28;20318;-48
2022/04/20 00:54:21;;;;;;;;;;;9.60;98.60;;;;;;5052793;28;19924;-48
2022/04/20 00:56:47;;;;;;;;;;;9.70;98.90;;;;;;5052965;28;19928;-48
2022/04/20 00:59:15;;;;;;;;;;;9.60;99.40;;;;;;5051065;28;19925;-48
2022/04/20 01:01:42;;;;;;;;;;;9.50;99.70;;;;;;5045323;28;20434;-49
2022/04/20 01:04:09;;;;;;;;;;;9.50;99.90;;;;;;5052301;28;19986;-48
2022/04/20 01:06:36;;;;;;;;;;;9.50;99.90;;;;;;5052653;28;19925;-48
2022/04/20 01:09:03;;;;;;;;;;;9.30;99.90;;;;;;5051878;28;19943;-48
2022/04/20 01:11:32;;;;;;;;;;;9.20;99.90;;;;;;5052259;28;19994;-48
2022/04/20 01:13:59;;;;;;;;;;;9.20;99.90;;;;;;5052504;28;19925;-48
2022/04/20 01:16:26;;;;;;;;;;;9.30;99.90;;;;;;5050854;28;19925;-48
2022/04/20 01:18:53;;;;;;;;;;;9.30;99.90;;;;;;5052127;28;19933;-48
2022/04/20 01:21:22;;;;;;;;;;;9.10;99.90;;;;;;5052284;28;20006;-48
2022/04/20 01:23:48;;;;;;;;;;;9.10;99.90;;;;;;5050725;28;19929;-48
2022/04/20 01:26:15;;;;;;;;;;;9.40;99.90;;;;;;5044842;28;19970;-48
2022/04/20 01:28:44;;;;;;;;;;;9.40;99.90;;;;;;5052197;28;19928;-49
2022/04/20 01:31:13;;;;;;;;;;;9.30;99.90;;;;;;5046903;28;19932;-47
2022/04/20 01:33:40;;;;;;;;;;;9.30;99.90;;;;;;5048328;28;19933;-48
2022/04/20 01:36:07;;;;;;;;;;;9.30;99.90;;;;;;5051129;28;19924;-48
2022/04/20 01:38:35;;;;;;;;;;;9.20;99.90;;;;;;5051804;28;19925;-48
2022/04/20 01:41:01;;;;;;;;;;;9.30;99.90;;;;;;5052043;28;20378;-49
2022/04/20 01:43:28;;;;;;;;;;;9.20;99.90;;;;;;5051856;28;19941;-48
2022/04/20 01:45:55;;;;;;;;;;;9.30;99.90;;;;;;5056227;28;20437;-48
2022/04/20 01:48:22;;;;;;;;;;;9.10;99.90;;;;;;5056303;28;19928;-48
2022/04/20 01:53:34;;;;;;;;;;;8.90;99.90;;;;;;5052056;28;20063;-48
2022/04/20 01:56:03;;;;;;;;;;;8.70;99.90;;;;;;5051982;28;19940;-48
2022/04/20 01:58:30;;;;;;;;;;;8.80;99.90;;;;;;5051673;28;20305;-48
2022/04/20 02:00:56;;;;;;;;;;;8.50;99.90;;;;;;5050491;28;19925;-48
2022/04/20 02:03:22;;;;;;;;;;;8.40;99.90;;;;;;5050019;28;19925;-48
2022/04/20 02:05:49;;;;;;;;;;;8.50;99.90;;;;;;5051316;28;19948;-49
2022/04/20 02:08:17;;;;;;;;;;;8.40;99.90;;;;;;5051642;28;20394;-48
2022/04/20 02:10:46;;;;;;;;;;;8.40;99.90;;;;;;5051630;28;19972;-47
2022/04/20 02:13:12;;;;;;;;;;;8.50;99.90;;;;;;5051414;28;20298;-48
2022/04/20 02:15:40;;;;;;;;;;;8.30;99.90;;;;;;5050929;28;19955;-48
2022/04/20 02:18:06;;;;;;;;;;;8.10;99.90;;;;;;5051241;28;19925;-47
2022/04/20 02:20:33;;;;;;;;;;;8.20;99.90;;;;;;5051549;28;19971;-48
2022/04/20 02:23:00;;;;;;;;;;;8.10;99.90;;;;;;5051095;28;19979;-47
2022/04/20 02:25:29;;;;;;;;;;;8.20;99.90;;;;;;5051168;28;19955;-48
2022/04/20 02:27:57;;;;;;;;;;;8.20;99.90;;;;;;5051569;28;20401;-48
2022/04/20 02:30:24;;;;;;;;;;;7.90;99.90;;;;;;5050616;28;19998;-48
2022/04/20 02:32:50;;;;;;;;;;;7.90;99.90;;;;;;5042741;28;19955;-48
2022/04/20 02:35:17;;;;;;;;;;;7.90;99.90;;;;;;5051533;28;20012;-48
2022/04/20 02:37:44;;;;;;;;;;;7.80;99.90;;;;;;5052400;28;19929;-47
2022/04/20 02:40:12;;;;;;;;;;;7.80;99.90;;;;;;5055268;28;19929;-47
2022/04/20 02:42:38;;;;;;;;;;;7.80;99.90;;;;;;5055170;28;19924;-48
2022/04/20 02:45:07;;;;;;;;;;;7.90;99.90;;;;;;5055244;28;20398;-48
2022/04/20 02:47:34;;;;;;;;;;;7.90;99.90;;;;;;5053553;28;19998;-49
2022/04/20 02:50:00;;;;;;;;;;;7.90;99.90;;;;;;5054243;28;20440;-48
2022/04/20 02:52:27;;;;;;;;;;;8.00;99.90;;;;;;5054879;28;19955;-48
2022/04/20 02:54:54;;;;;;;;;;;7.90;99.90;;;;;;5056101;28;20310;-48
2022/04/20 02:57:20;;;;;;;;;;;7.80;99.90;;;;;;5066301;28;19978;-48
2022/04/20 02:59:47;;;;;;;;;;;7.80;99.90;;;;;;5055062;28;19925;-47
2022/04/20 03:02:15;;;;;;;;;;;7.70;99.90;;;;;;5051913;28;19928;-48
2022/04/20 03:04:43;;;;;;;;;;;7.80;99.90;;;;;;5054669;28;20467;-48
2022/04/20 03:07:10;;;;;;;;;;;8.00;99.90;;;;;;5054850;28;19978;-47
2022/04/20 03:09:36;;;;;;;;;;;8.10;99.90;;;;;;5054842;28;19978;-48
2022/04/20 03:12:03;;;;;;;;;;;8.00;99.90;;;;;;5054352;28;20361;-48
2022/04/20 03:14:30;;;;;;;;;;;7.90;99.90;;;;;;5054805;28;19925;-48
2022/04/20 03:16:57;;;;;;;;;;;7.90;99.90;;;;;;5052962;28;20340;-47
2022/04/20 03:19:25;;;;;;;;;;;7.90;99.90;;;;;;5054350;28;19929;-47
2022/04/20 03:21:52;;;;;;;;;;;8.00;99.90;;;;;;5054187;28;19928;-48
2022/04/20 03:24:18;;;;;;;;;;;7.90;99.90;;;;;;5054160;28;19925;-47
2022/04/20 03:26:45;;;;;;;;;;;7.90;99.90;;;;;;5052328;28;20107;-47
2022/04/20 03:29:12;;;;;;;;;;;7.90;99.90;;;;;;5053540;28;19999;-47
2022/04/20 03:31:39;;;;;;;;;;;7.90;99.90;;;;;;5049558;28;19924;-48
2022/04/20 03:34:05;;;;;;;;;;;7.60;99.90;;;;;;5054156;28;19929;-47
2022/04/20 03:36:35;;;;;;;;;;;7.70;99.90;;;;;;5053958;28;20352;-47
2022/04/20 03:39:01;;;;;;;;;;;7.80;99.90;;;;;;5053916;28;19979;-48
2022/04/20 03:41:32;;;;;;;;;;;7.70;99.90;;;;;;5054000;28;19925;-48
2022/04/20 03:43:58;;;;;;;;;;;7.70;99.90;;;;;;5054156;28;19931;-48
2022/04/20 03:46:28;;;;;;;;;;;7.50;99.90;;;;;;5054197;28;20062;-48
2022/04/20 03:48:55;;;;;;;;;;;7.50;99.90;;;;;;5080900;22;20219;-59
2022/04/20 03:51:22;;;;;;;;;;;7.20;99.90;;;;;;5080842;28;19990;-60
2022/04/20 03:53:50;;;;;;;;;;;7.20;99.90;;;;;;5086855;28;19924;-60
2022/04/20 03:56:17;;;;;;;;;;;7.10;99.90;;;;;;5085316;28;19925;-59
2022/04/20 03:58:43;;;;;;;;;;;7.00;99.90;;;;;;5095122;28;20416;-59
2022/04/20 04:01:10;;;;;;;;;;;7.00;99.90;;;;;;5085535;28;19925;-60
2022/04/20 04:03:38;;;;;;;;;;;7.10;99.90;;;;;;5081888;28;19947;-58
2022/04/20 04:06:06;;;;;;;;;;;7.00;99.90;;;;;;5077230;28;19929;-62
2022/04/20 04:08:32;;;;;;;;;;;7.00;99.90;;;;;;5102899;28;19924;-60
2022/04/20 04:11:01;;;;;;;;;;;7.20;99.90;;;;;;5091942;28;19928;-59
2022/04/20 04:13:27;;;;;;;;;;;7.20;99.90;;;;;;5090824;28;19924;-59
2022/04/20 04:15:54;;;;;;;;;;;7.00;99.90;;;;;;5090608;28;19970;-59
2022/04/20 04:18:21;;;;;;;;;;;7.00;99.90;;;;;;5085187;28;20374;-59
2022/04/20 04:20:48;;;;;;;;;;;7.10;99.90;;;;;;5077976;28;19925;-58
2022/04/20 04:23:17;;;;;;;;;;;7.00;99.90;;;;;;5077232;28;19924;-59
2022/04/20 04:25:43;;;;;;;;;;;6.90;99.90;;;;;;5079050;28;20015;-59
2022/04/20 04:28:11;;;;;;;;;;;6.80;99.90;;;;;;5077049;28;19929;-59
2022/04/20 04:30:38;;;;;;;;;;;6.80;99.90;;;;;;5073144;28;20378;-59
2022/04/20 04:33:05;;;;;;;;;;;6.90;99.90;;;;;;5074152;28;19932;-59
2022/04/20 04:35:32;;;;;;;;;;;7.00;99.90;;;;;;5074380;28;19931;-62
2022/04/20 04:37:59;;;;;;;;;;;7.10;99.90;;;;;;5072672;28;19932;-59
2022/04/20 04:40:26;;;;;;;;;;;7.00;99.90;;;;;;5073848;28;19924;-59
2022/04/20 04:42:53;;;;;;;;;;;6.90;99.90;;;;;;5073594;28;19925;-59
2022/04/20 04:50:50;;;;;;;;;;;7.40;99.90;;;;;;5081761;28;20006;-59
2022/04/20 04:53:17;;;;;;;;;;;7.60;99.90;;;;;;5080203;28;19925;-59
2022/04/20 04:55:44;;;;;;;;;;;7.80;99.90;;;;;;5075936;28;19967;-59
2022/04/20 04:58:11;;;;;;;;;;;8.00;99.90;;;;;;5076351;28;19933;-59
2022/04/20 05:00:39;;;;;;;;;;;8.10;99.90;;;;;;5069573;28;20012;-59
2022/04/20 05:03:08;;;;;;;;;;;8.20;99.90;;;;;;5071512;28;19924;-58
2022/04/20 05:05:35;;;;;;;;;;;8.20;99.90;;;;;;5073118;28;19925;-58
2022/04/20 05:08:05;;;;;;;;;;;8.30;99.90;;;;;;5073351;28;20019;-58
2022/04/20 05:10:32;;;;;;;;;;;8.30;99.90;;;;;;5071307;28;19924;-60
2022/04/20 05:13:00;;;;;;;;;;;8.50;99.90;;;;;;5068088;28;19931;-58
2022/04/20 05:15:27;;;;;;;;;;;8.70;99.90;;;;;;5070700;28;19928;-58
2022/04/20 05:17:57;;;;;;;;;;;8.90;99.90;;;;;;5075147;28;20317;-59
2022/04/20 05:20:23;;;;;;;;;;;9.00;99.90;;;;;;5071151;28;19931;-62
2022/04/20 05:22:50;;;;;;;;;;;9.50;99.90;;;;;;5071207;28;20002;-58
2022/04/20 05:25:17;;;;;;;;;;;11.00;99.90;;;;;;5069542;28;19957;-58
2022/04/20 05:27:44;;;;;;;;;;;12.40;99.90;;;;;;5070064;28;20012;-61
2022/04/20 05:30:13;;;;;;;;;;;14.00;99.90;;;;;;5068093;28;19928;-59
2022/04/20 05:32:40;;;;;;;;;;;15.00;97.00;;;;;;5071037;28;20292;-58
2022/04/20 05:35:12;;;;;;;;;;;16.30;93.60;;;;;;5070096;28;19967;-59
2022/04/20 05:43:07;;;;;;;;;;;19.20;82.70;;;;;;5064889;28;20038;-59
2022/04/20 05:45:36;;;;;;;;;;;20.60;77.70;;;;;;5068843;28;20022;-58
2022/04/20 05:48:03;;;;;;;;;;;21.00;75.20;;;;;;5073912;28;20019;-58
2022/04/20 05:50:31;;;;;;;;;;;22.10;71.10;;;;;;5070494;28;19928;-60
2022/04/20 05:52:59;;;;;;;;;;;22.00;69.70;;;;;;5067871;28;20550;-58
2022/04/20 05:55:25;;;;;;;;;;;21.90;68.50;;;;;;5070428;28;19932;-60
2022/04/20 05:57:53;;;;;;;;;;;22.00;68.90;;;;;;5067668;28;19924;-59
2022/04/20 06:00:20;;;;;;;;;;;22.50;67.10;;;;;;5069449;28;19932;-60
2022/04/20 06:02:46;;;;;;;;;;;22.70;67.50;;;;;;5067020;28;19925;-60
2022/04/20 06:05:13;;;;;;;;;;;22.40;66.40;;;;;;5065267;28;20309;-60
2022/04/20 06:07:41;;;;;;;;;;;22.70;65.50;;;;;;5067470;28;19932;-59
2022/04/20 06:10:10;;;;;;;;;;;22.60;64.80;;;;;;5068358;28;19982;-60
2022/04/20 06:12:37;;;;;;;;;;;22.90;66.80;;;;;;5071994;28;19924;-61
2022/04/20 06:15:04;;;;;;;;;;;23.60;63.70;;;;;;5072470;28;19928;-60
2022/04/20 06:17:31;;;;;;;;;;;23.80;62.80;;;;;;5076089;28;19954;-62
2022/04/20 06:19:58;;;;;;;;;;;23.00;63.00;;;;;;5074849;28;20356;-60
2022/04/20 06:22:24;;;;;;;;;;;22.90;63.30;;;;;;5074256;28;20069;-60
2022/04/20 06:24:52;;;;;;;;;;;23.70;62.90;;;;;;5074252;28;19924;-61
2022/04/20 06:27:19;;;;;;;;;;;24.00;61.00;;;;;;5074166;28;19932;-62
2022/04/20 06:29:46;;;;;;;;;;;24.00;60.10;;;;;;5073676;28;19924;-61
2022/04/20 06:32:13;;;;;;;;;;;23.50;60.60;;;;;;5072610;28;19978;-64
2022/04/20 06:34:39;;;;;;;;;;;21.10;63.00;;;;;;5073277;28;20001;-61
2022/04/20 06:37:06;;;;;;;;;;;20.60;65.70;;;;;;5074998;28;19924;-60
2022/04/20 06:39:33;;;;;;;;;;;19.50;67.70;;;;;;5070107;28;19931;-61
2022/04/20 06:42:02;;;;;;;;;;;20.30;67.10;;;;;;5071793;28;19924;-60
2022/04/20 06:44:28;;;;;;;;;;;21.50;64.40;;;;;;5070087;28;19968;-61
2022/04/20 06:46:55;;;;;;;;;;;22.40;62.70;;;;;;5073232;28;19982;-61
2022/04/20 06:49:22;;;;;;;;;;;21.50;64.10;;;;;;5073391;28;19944;-62
2022/04/20 07:00:06;;;;;;;;;;;21.90;64.30;;;;;;5073596;28;19935;-62
2022/04/20 07:02:33;;;;;;;;;;;22.80;62.80;;;;;;5069105;28;19925;-62
2022/04/20 07:05:00;;;;;;;;;;;24.70;59.70;;;;;;5073380;28;19925;-63
2022/04/20 07:07:27;;;;;;;;;;;24.20;59.90;;;;;;5073194;28;20358;-63
2022/04/20 07:09:54;;;;;;;;;;;24.10;60.70;;;;;;5073317;28;19950;-62
2022/04/20 07:12:22;;;;;;;;;;;25.00;59.50;;;;;;5072913;28;19924;-63
2022/04/20 07:14:48;;;;;;;;;;;25.80;58.80;;;;;;5073060;28;19990;-63
2022/04/20 07:17:15;;;;;;;;;;;26.30;57.30;;;;;;5072460;28;19932;-62
2022/04/20 07:19:42;;;;;;;;;;;25.90;56.50;;;;;;5071723;28;20477;-62
2022/04/20 07:22:09;;;;;;;;;;;25.50;57.40;;;;;;5072235;28;19978;-62
2022/04/20 07:24:35;;;;;;;;;;;25.20;57.80;;;;;;5070286;28;19935;-63
2022/04/20 07:27:02;;;;;;;;;;;25.70;57.40;;;;;;5073483;28;19924;-62
2022/04/20 07:29:30;;;;;;;;;;;26.30;56.20;;;;;;5073402;28;20348;-63
2022/04/20 07:31:57;;;;;;;;;;;27.60;54.80;;;;;;5073496;28;19928;-63
2022/04/20 07:34:24;;;;;;;;;;;27.90;53.60;;;;;;5075463;28;20069;-63
2022/04/20 07:36:51;;;;;;;;;;;27.90;53.70;;;;;;5083225;28;19925;-63
2022/04/20 07:39:17;;;;;;;;;;;27.90;53.20;;;;;;5072663;28;19978;-62
2022/04/20 07:41:44;;;;;;;;;;;26.80;53.80;;;;;;5072279;28;20435;-63
2022/04/20 07:44:11;;;;;;;;;;;27.50;53.60;;;;;;5068180;28;19929;-63
2022/04/20 07:46:39;;;;;;;;;;;26.70;53.70;;;;;;5072849;28;19924;-64
2022/04/20 07:51:46;;;;;;;;;;;24.80;55.80;;;;;;5070645;28;19942;-59
2022/04/20 07:54:13;;;;;;;;;;;23.10;58.50;;;;;;5071478;28;19936;-62
2022/04/20 07:56:40;;;;;;;;;;;22.60;59.30;;;;;;5067537;28;19936;-62
2022/04/20 07:59:06;;;;;;;;;;;21.60;59.90;;;;;;5070209;28;20452;-62
2022/04/20 08:01:33;;;;;;;;;;;21.90;59.40;;;;;;5070414;28;19947;-62
2022/04/20 08:04:01;;;;;;;;;;;21.70;59.60;;;;;;5070878;28;19925;-61
2022/04/20 08:06:30;;;;;;;;;;;22.40;59.30;;;;;;5072268;28;19924;-62
2022/04/20 08:08:57;;;;;;;;;;;21.40;59.30;;;;;;5076624;28;19936;-61
2022/04/20 08:11:24;;;;;;;;;;;20.30;60.80;;;;;;5072256;28;19950;-60
2022/04/20 08:16:44;;;;;;;;;;;19.80;63.20;;;;;;5048038;28;19970;-61
2022/04/20 08:19:12;;;;;;;;;;;21.30;61.40;;;;;;5076328;28;19985;-60
2022/04/20 08:21:39;;;;;;;;;;;22.00;59.70;;;;;;5055732;28;19986;-60
2022/04/20 08:24:06;;;;;;;;;;;22.30;58.90;;;;;;5071082;28;19924;-60
2022/04/20 08:26:36;;;;;;;;;;;21.30;60.20;;;;;;5072341;28;20287;-60
2022/04/20 08:29:09;;;;;;;;;;;20.50;62.10;;;;;;5073313;28;19924;-61
2022/04/20 08:31:36;;;;;;;;;;;20.10;62.30;;;;;;5072069;28;20370;-60
2022/04/20 08:34:03;;;;;;;;;;;21.00;61.20;;;;;;5071482;28;19928;-60
2022/04/20 08:36:31;;;;;;;;;;;21.40;59.70;;;;;;5072049;28;20455;-60
2022/04/20 08:38:57;;;;;;;;;;;20.80;61.40;;;;;;5072390;28;19924;-60
2022/04/20 08:41:24;;;;;;;;;;;21.50;60.60;;;;;;5070704;28;19978;-60
2022/04/20 08:43:51;;;;;;;;;;;22.00;59.60;;;;;;5073167;28;20349;-60
2022/04/20 08:46:18;;;;;;;;;;;23.30;57.90;;;;;;5071972;28;20345;-61
2022/04/20 08:48:45;;;;;;;;;;;22.80;58.50;;;;;;5071560;28;19978;-60
2022/04/20 08:51:12;;;;;;;;;;;21.60;59.40;;;;;;5071344;28;20341;-60
2022/04/20 08:53:41;;;;;;;;;;;22.30;59.10;;;;;;5072125;28;20440;-60
2022/04/20 08:58:53;;;;;;;;;;;22.50;59.50;;;;;;5071958;28;20396;-60
2022/04/20 09:01:19;;;;;;;;;;;22.60;58.10;;;;;;5086990;28;20332;-60
2022/04/20 09:03:47;;;;;;;;;;;22.40;58.80;;;;;;5075858;28;19928;-61
2022/04/20 09:06:13;;;;;;;;;;;23.80;59.20;;;;;;5071859;28;19964;-59
2022/04/20 09:08:42;;;;;;;;;;;24.20;58.20;;;;;;5071664;28;19975;-59
2022/04/20 09:11:08;;;;;;;;;;;25.00;56.30;;;;;;5071186;28;19925;-61
2022/04/20 09:13:38;;;;;;;;;;;24.60;56.00;;;;;;5071761;28;19924;-61
2022/04/20 09:16:06;;;;;;;;;;;24.50;57.10;;;;;;5071556;28;19928;-60
2022/04/20 09:18:32;;;;;;;;;;;23.40;57.20;;;;;;5071384;28;19946;-59
2022/04/20 09:21:05;;;;;;;;;;;22.30;60.00;;;;;;5071496;28;20018;-60
2022/04/20 09:23:32;;;;;;;;;;;21.40;61.50;;;;;;5071316;28;20382;-60
2022/04/20 09:26:07;;;;;;;;;;;20.80;60.90;;;;;;5071395;28;19955;-61
2022/04/20 09:28:34;;;;;;;;;;;21.40;62.30;;;;;;5071603;28;19986;-60
2022/04/20 09:31:00;;;;;;;;;;;22.50;61.10;;;;;;5070849;28;20364;-59
2022/04/20 09:33:41;;;;;;;;;;;22.00;60.90;;;;;;5069348;28;19925;-61
2022/04/20 09:36:07;;;;;;;;;;;21.50;62.80;;;;;;5070129;28;19970;-60
2022/04/20 09:38:37;;;;;;;;;;;21.60;61.10;;;;;;5069931;28;19924;-60
2022/04/20 09:41:09;;;;;;;;;;;22.20;61.80;;;;;;5069985;28;19925;-60
2022/04/20 09:43:36;;;;;;;;;;;22.20;60.60;;;;;;5069752;28;19959;-61
2022/04/20 09:46:04;;;;;;;;;;;22.30;61.70;;;;;;5069579;28;20279;-59
2022/04/20 09:51:20;;;;;;;;;;;22.70;60.60;;;;;;5069690;28;20013;-59
2022/04/20 09:53:48;;;;;;;;;;;22.50;59.40;;;;;;5069590;28;19928;-59
2022/04/20 09:56:17;;;;;;;;;;;23.50;61.10;;;;;;5093292;22;19931;-49
2022/04/20 09:58:46;;;;;;;;;;;23.00;62.00;;;;;;5056943;28;19924;-50
2022/04/20 10:01:24;;;;;;;;;;;24.20;60.00;;;;;;5051653;28;19925;-52
2022/04/20 10:03:53;;;;;;;;;;;24.60;57.90;;;;;;5052940;28;19974;-49
2022/04/20 10:06:20;;;;;;;;;;;24.60;58.30;;;;;;5059818;28;19924;-49
2022/04/20 10:08:47;;;;;;;;;;;24.50;58.10;;;;;;5062558;28;20298;-49
2022/04/20 10:11:15;;;;;;;;;;;23.00;59.20;;;;;;5045460;28;20283;-49
2022/04/20 10:13:44;;;;;;;;;;;23.10;60.90;;;;;;5051237;28;19928;-49
2022/04/20 10:16:11;;;;;;;;;;;22.20;60.00;;;;;;5052233;28;19932;-49
2022/04/20 10:18:39;;;;;;;;;;;22.70;60.60;;;;;;5052731;28;19975;-49
2022/04/20 10:21:08;;;;;;;;;;;23.20;61.20;;;;;;5052082;28;19929;-48
2022/04/20 10:23:35;;;;;;;;;;;23.70;60.00;;;;;;5071924;28;19924;-49
2022/04/20 10:26:07;;;;;;;;;;;24.00;60.40;;;;;;5070477;28;20022;-49
2022/04/20 10:28:36;;;;;;;;;;;25.00;60.00;;;;;;5056562;28;19924;-49
2022/04/20 10:31:16;;;;;;;;;;;25.90;56.10;;;;;;5049900;28;20007;-49
2022/04/20 10:33:43;;;;;;;;;;;25.70;57.40;;;;;;5049860;28;19929;-49
2022/04/20 10:36:11;;;;;;;;;;;25.80;58.20;;;;;;5050141;28;19931;-49
2022/04/20 10:38:39;;;;;;;;;;;24.70;57.20;;;;;;5050151;28;19932;-48
2022/04/20 10:41:07;;;;;;;;;;;24.20;61.10;;;;;;5050169;28;20026;-48
2022/04/20 10:43:35;;;;;;;;;;;24.50;59.00;;;;;;5050077;28;19925;-49
2022/04/20 10:46:15;;;;;;;;;;;25.50;58.40;;;;;;5049772;28;19955;-50
2022/04/20 10:48:46;;;;;;;;;;;25.40;58.50;;;;;;5050012;28;20448;-49
2022/04/20 10:51:14;;;;;;;;;;;23.90;59.40;;;;;;5049409;28;20394;-49
2022/04/20 10:53:41;;;;;;;;;;;22.70;63.00;;;;;;5049833;28;19951;-48
2022/04/20 10:56:08;;;;;;;;;;;20.90;63.20;;;;;;5046017;28;20421;-48
2022/04/20 10:58:36;;;;;;;;;;;19.30;68.50;;;;;;5051823;28;19979;-48
2022/04/20 11:01:10;;;;;;;;;;;18.60;70.20;;;;;;5053470;28;19933;-48
2022/04/20 11:03:54;;;;;;;;;;;18.60;68.50;;;;;;5053678;28;19925;-48
2022/04/20 11:06:20;;;;;;;;;;;18.70;68.30;;;;;;5053612;28;19924;-48
2022/04/20 11:08:50;;;;;;;;;;;18.80;70.90;;;;;;5053438;28;20348;-47
2022/04/20 11:19:50;;;;;;;;;;;18.00;75.70;;;;;;5053489;28;19932;-49
2022/04/20 11:22:17;;;;;;;;;;;18.60;74.20;;;;;;5057655;28;19986;-49
2022/04/20 11:24:43;;;;;;;;;;;18.30;70.70;;;;;;5054622;28;19986;-48
2022/04/20 11:27:10;;;;;;;;;;;18.20;73.00;;;;;;5054338;28;19924;-49
2022/04/20 11:29:38;;;;;;;;;;;18.10;71.30;;;;;;5054393;28;19944;-48
2022/04/20 11:32:05;;;;;;;;;;;18.30;72.20;;;;;;5053851;28;19925;-49
2022/04/20 11:34:32;;;;;;;;;;;18.00;71.60;;;;;;5054383;28;19925;-49
2022/04/20 11:37:02;;;;;;;;;;;18.30;75.60;;;;;;5054284;28;19979;-48
2022/04/20 11:39:29;;;;;;;;;;;18.00;71.80;;;;;;5054177;28;19971;-48
2022/04/20 11:41:57;;;;;;;;;;;18.10;69.70;;;;;;5053409;28;19926;-48
2022/04/20 11:44:24;;;;;;;;;;;17.30;71.50;;;;;;5053854;28;19925;-49
2022/04/20 11:46:51;;;;;;;;;;;17.50;74.80;;;;;;5054045;28;19979;-49
2022/04/20 11:49:18;;;;;;;;;;;18.10;73.80;;;;;;5054118;28;19928;-48
2022/04/20 11:51:46;;;;;;;;;;;18.40;71.60;;;;;;5053684;28;19925;-49
2022/04/20 11:54:20;;;;;;;;;;;18.30;70.70;;;;;;5053966;28;19929;-47
2022/04/20 11:56:46;;;;;;;;;;;18.20;71.00;;;;;;5053696;28;19924;-49
2022/04/20 11:59:13;;;;;;;;;;;18.10;70.90;;;;;;5053706;28;20325;-48
2022/04/20 12:01:41;;;;;;;;;;;18.10;72.70;;;;;;5053354;28;19951;-49
2022/04/20 12:04:12;;;;;;;;;;;17.70;71.00;;;;;;5055074;28;19925;-49
2022/04/20 12:06:44;;;;;;;;;;;17.60;72.70;;;;;;5071959;28;20010;-50
2022/04/20 12:09:11;;;;;;;;;;;17.70;74.20;;;;;;5071627;28;20330;-49
2022/04/20 12:11:40;;;;;;;;;;;17.60;74.40;;;;;;5053555;28;19925;-49
2022/04/20 12:14:07;;;;;;;;;;;17.90;73.60;;;;;;5053526;28;20452;-49
2022/04/20 12:16:36;;;;;;;;;;;18.00;73.60;;;;;;5053038;28;19933;-49
2022/04/20 12:19:03;;;;;;;;;;;17.60;72.20;;;;;;5054729;28;19982;-49
2022/04/20 12:21:37;;;;;;;;;;;17.60;72.60;;;;;;5052758;28;20457;-48
2022/04/20 12:24:04;;;;;;;;;;;17.20;73.00;;;;;;5053387;28;19928;-49
2022/04/20 12:26:34;;;;;;;;;;;17.30;72.40;;;;;;5052805;28;20354;-48
2022/04/20 12:29:05;;;;;;;;;;;17.10;72.70;;;;;;5052719;28;19928;-49
2022/04/20 12:31:37;;;;;;;;;;;17.20;72.40;;;;;;5052197;28;19932;-49
2022/04/20 12:34:04;;;;;;;;;;;17.40;73.30;;;;;;5052996;28;19925;-49
2022/04/20 12:36:32;;;;;;;;;;;17.70;72.10;;;;;;5052818;28;19970;-49
2022/04/20 12:38:59;;;;;;;;;;;17.80;72.60;;;;;;5053494;28;19994;-49
2022/04/20 12:41:36;;;;;;;;;;;17.80;69.80;;;;;;5051672;28;19978;-48
2022/04/20 12:44:25;;;;;;;;;;;17.50;72.50;;;;;;5053142;28;19978;-49
2022/04/20 12:46:51;;;;;;;;;;;17.80;72.50;;;;;;5052610;28;20372;-49
2022/04/20 12:49:22;;;;;;;;;;;17.80;72.70;;;;;;5053102;28;19924;-49
2022/04/20 12:51:49;;;;;;;;;;;17.70;72.10;;;;;;5052613;28;19924;-49
2022/04/20 12:54:22;;;;;;;;;;;17.70;71.10;;;;;;5052971;28;19924;-49
2022/04/20 13:02:19;;;;;;;;;;;17.40;72.90;;;;;;5051360;28;20377;-49
2022/04/20 13:04:49;;;;;;;;;;;17.60;71.70;;;;;;5050952;28;19929;-48
2022/04/20 13:07:16;;;;;;;;;;;17.60;71.50;;;;;;5051162;28;19929;-47
2022/04/20 13:09:43;;;;;;;;;;;17.70;71.90;;;;;;5049120;28;20145;-48
2022/04/20 13:12:11;;;;;;;;;;;17.70;71.50;;;;;;5047036;28;19925;-48
2022/04/20 13:14:41;;;;;;;;;;;17.60;72.50;;;;;;5051079;28;20036;-49
2022/04/20 13:17:09;;;;;;;;;;;17.60;72.30;;;;;;5051030;28;19925;-49
2022/04/20 13:19:36;;;;;;;;;;;17.50;73.30;;;;;;5050825;28;19928;-48
2022/04/20 13:22:03;;;;;;;;;;;17.70;72.20;;;;;;5050926;28;19932;-49
2022/04/20 13:30:14;;;;;;;;;;;17.40;71.40;;;;;;5008143;28;19930;-49
2022/04/20 13:32:41;;;;;;;;;;;17.30;70.50;;;;;;5008636;28;19929;-49
2022/04/20 13:35:08;;;;;;;;;;;17.30;73.20;;;;;;5026993;28;19928;-49
2022/04/20 13:37:35;;;;;;;;;;;17.40;71.50;;;;;;5050722;28;20441;-49
2022/04/20 13:40:01;;;;;;;;;;;17.10;69.50;;;;;;5050947;28;19925;-49
2022/04/20 13:42:28;;;;;;;;;;;17.00;73.80;;;;;;5050703;28;19925;-48
2022/04/20 13:44:55;;;;;;;;;;;17.00;71.80;;;;;;5050747;28;19978;-48
2022/04/20 13:47:23;;;;;;;;;;;16.90;69.40;;;;;;5050673;28;19925;-49
2022/04/20 13:49:50;;;;;;;;;;;16.90;72.00;;;;;;5050539;28;20235;-49
2022/04/20 13:52:16;;;;;;;;;;;17.10;73.30;;;;;;5050632;28;19929;-48
2022/04/20 13:54:43;;;;;;;;;;;16.80;71.50;;;;;;5050483;28;20388;-50
2022/04/20 13:57:10;;;;;;;;;;;17.00;70.90;;;;;;5050387;28;19924;-48
2022/04/20 13:59:37;;;;;;;;;;;17.10;74.00;;;;;;5050150;28;19928;-48
2022/04/20 14:02:04;;;;;;;;;;;17.30;72.70;;;;;;5050149;28;19936;-49
2022/04/20 14:04:32;;;;;;;;;;;17.50;72.50;;;;;;5050622;28;19986;-49
2022/04/20 14:06:59;;;;;;;;;;;17.70;71.50;;;;;;5046812;28;19924;-50
2022/04/20 14:09:25;;;;;;;;;;;17.70;70.10;;;;;;5050393;28;19925;-49
2022/04/20 14:11:53;;;;;;;;;;;17.60;70.90;;;;;;5049986;28;19932;-48
2022/04/20 14:14:20;;;;;;;;;;;17.60;72.30;;;;;;5050204;28;19924;-49
2022/04/20 14:16:48;;;;;;;;;;;17.20;72.60;;;;;;5046867;28;19925;-49
2022/04/20 14:19:15;;;;;;;;;;;17.30;71.90;;;;;;5050439;28;19924;-50
2022/04/20 14:21:43;;;;;;;;;;;17.40;71.00;;;;;;5049703;28;19970;-49
2022/04/20 14:24:11;;;;;;;;;;;17.40;69.40;;;;;;5050185;28;20391;-50
2022/04/20 14:32:13;;;;;;;;;;;17.20;71.30;;;;;;5049019;28;20050;-49
2022/04/20 14:34:40;;;;;;;;;;;17.20;71.10;;;;;;5054062;28;19929;-49
2022/04/20 14:37:09;;;;;;;;;;;17.20;71.50;;;;;;5053996;28;19924;-51
2022/04/20 14:39:36;;;;;;;;;;;17.10;71.10;;;;;;5055179;28;19924;-50
2022/04/20 14:42:03;;;;;;;;;;;17.20;70.00;;;;;;5053781;28;19925;-49
2022/04/20 14:44:31;;;;;;;;;;;17.10;70.90;;;;;;5055474;28;20402;-50
2022/04/20 14:46:57;;;;;;;;;;;17.00;70.20;;;;;;5055297;28;20301;-50
2022/04/20 14:49:24;;;;;;;;;;;16.90;71.00;;;;;;5055150;28;19929;-50
2022/04/20 14:51:51;;;;;;;;;;;17.00;68.70;;;;;;5054374;28;19929;-50
2022/04/20 14:54:19;;;;;;;;;;;17.00;70.00;;;;;;5050537;28;19971;-50
2022/04/20 14:56:46;;;;;;;;;;;16.90;70.90;;;;;;5054318;28;19925;-50
2022/04/20 14:59:13;;;;;;;;;;;17.00;71.10;;;;;;5064726;28;19924;-49
2022/04/20 15:01:39;;;;;;;;;;;17.00;72.10;;;;;;5054521;28;19986;-52
2022/04/20 15:04:06;;;;;;;;;;;16.90;71.40;;;;;;5053177;28;19925;-50
2022/04/20 15:06:36;;;;;;;;;;;16.80;72.20;;;;;;5054470;28;19925;-49
2022/04/20 15:09:03;;;;;;;;;;;16.90;71.30;;;;;;5055143;28;19925;-50
2022/04/20 15:11:31;;;;;;;;;;;16.70;69.80;;;;;;5054147;28;20330;-51
2022/04/20 15:13:58;;;;;;;;;;;16.80;72.40;;;;;;5053682;28;19974;-51
2022/04/20 15:16:25;;;;;;;;;;;16.80;70.00;;;;;;5058674;28;20441;-49
2022/04/20 15:18:53;;;;;;;;;;;16.80;71.30;;;;;;5053276;28;19994;-50
2022/04/20 15:21:19;;;;;;;;;;;16.90;71.00;;;;;;5053726;28;20529;-50